Terminal Aerodrome Forecast
Issued by NWS Shreveport, LA

Home | Current Version | Previous Version | Text Only | Print | Product List | Glossary On
Versions: 1 2 3 4 5 6 7 8 9 10 11 12 13 14
000
FTUS44 KSHV 171100
TAFSHV
TAF
KSHV 171120Z 1712/1812 VRB03KT P6SM BKN250
     FM171600 15005KT P6SM SCT035 BKN250
     FM180200 VRB03KT P6SM BKN150
      TEMPO 1809/1812 4SM BR=

USA.gov is the U.S. government's official web portal to all federal, state and local government web resources and services.